createdAt,value
2022-08-11T00:02:29.620Z,23.79
2022-08-11T00:05:02.713Z,23.76
2022-08-11T00:07:33.084Z,23.73
2022-08-11T00:10:02.981Z,23.58
2022-08-11T00:12:31.935Z,23.66
2022-08-11T00:15:02.421Z,23.69
2022-08-11T00:17:33.775Z,23.54
2022-08-11T00:20:12.187Z,23.72
2022-08-11T00:22:46.178Z,23.79
2022-08-11T00:25:17.576Z,23.82
2022-08-11T00:27:48.077Z,23.64
2022-08-11T00:30:17.475Z,23.78
2022-08-11T00:32:56.332Z,23.77
2022-08-11T00:35:55.789Z,23.51
2022-08-11T00:38:26.033Z,23.24
2022-08-11T00:41:18.036Z,23.10
2022-08-11T00:44:11.560Z,22.74
2022-08-11T00:46:52.510Z,22.90
2022-08-11T00:49:34.411Z,22.84
2022-08-11T00:52:14.799Z,22.87
2022-08-11T00:55:15.496Z,22.70
2022-08-11T00:58:32.313Z,22.53
2022-08-11T01:01:22.746Z,22.36
2022-08-11T01:04:24.988Z,22.50
2022-08-11T01:08:00.511Z,23.00
2022-08-11T01:10:50.601Z,23.56
2022-08-11T01:13:59.434Z,23.26
2022-08-11T01:17:01.268Z,23.25
2022-08-11T01:20:45.969Z,23.09
2022-08-11T01:23:42.484Z,22.48
2022-08-11T01:26:49.968Z,22.44
2022-08-11T01:29:50.943Z,22.23
2022-08-11T01:32:55.362Z,22.52
2022-08-11T01:35:37.362Z,22.86
2022-08-11T01:38:39.727Z,22.42
2022-08-11T01:41:47.614Z,22.44
2022-08-11T01:44:47.016Z,20.90
2022-08-11T01:47:52.711Z,21.58
2022-08-11T01:50:39.140Z,22.39
2022-08-11T01:53:19.969Z,22.94
2022-08-11T01:55:58.114Z,23.06
2022-08-11T01:58:43.461Z,23.32
2022-08-11T02:01:26.489Z,23.11
2022-08-11T02:04:00.187Z,22.17
2022-08-11T02:06:56.062Z,21.82
2022-08-11T02:09:49.249Z,22.10
2022-08-11T02:12:29.585Z,22.73
2022-08-11T02:15:09.265Z,22.68
2022-08-11T02:17:50.113Z,22.81
2022-08-11T02:20:44.821Z,22.63
2022-08-11T02:24:05.990Z,22.95
2022-08-11T02:26:37.687Z,22.74
2022-08-11T02:29:17.205Z,22.32
2022-08-11T02:32:25.554Z,22.14
2022-08-11T02:35:05.062Z,21.77
2022-08-11T02:37:45.382Z,21.69
2022-08-11T02:40:25.258Z,22.31
2022-08-11T02:43:23.853Z,22.45
2022-08-11T02:46:02.475Z,22.72
2022-08-11T02:49:06.191Z,22.77
2022-08-11T02:51:42.215Z,22.87
2022-08-11T02:54:18.844Z,22.94
2022-08-11T02:56:56.117Z,23.04
2022-08-11T02:59:53.767Z,21.76
2022-08-11T03:02:48.614Z,23.14
2022-08-11T03:05:52.657Z,23.20
2022-08-11T03:08:37.302Z,23.24
2022-08-11T03:11:30.367Z,23.25
2022-08-11T03:14:34.135Z,23.26
2022-08-11T03:17:14.614Z,23.27
2022-08-11T03:19:54.705Z,23.13
2022-08-11T03:22:27.501Z,23.19
2022-08-11T03:25:02.706Z,23.08
2022-08-11T03:27:40.701Z,23.21
2022-08-11T03:30:14.882Z,23.02
2022-08-11T03:33:21.381Z,23.26
2022-08-11T03:36:12.030Z,22.86
2022-08-11T03:38:58.186Z,23.16
2022-08-11T03:42:01.558Z,23.29
2022-08-11T03:44:53.353Z,23.25
2022-08-11T03:47:55.045Z,22.97
2022-08-11T03:50:44.107Z,22.53
2022-08-11T03:53:20.293Z,23.23
2022-08-11T03:56:14.430Z,23.16
2022-08-11T03:59:21.145Z,22.97
2022-08-11T04:02:16.177Z,22.93
2022-08-11T04:05:20.835Z,23.33
2022-08-11T04:08:22.362Z,23.33
2022-08-11T04:11:27.092Z,23.24
2022-08-11T04:14:41.824Z,23.06
2022-08-11T04:17:39.953Z,22.58
2022-08-11T04:20:41.457Z,22.50
2022-08-11T04:24:13.273Z,22.47
2022-08-11T04:26:35.280Z,22.92
2022-08-11T04:29:19.234Z,21.95
2022-08-11T04:32:05.987Z,22.39
2022-08-11T04:34:52.878Z,23.02
2022-08-11T04:37:53.434Z,23.01
2022-08-11T04:40:52.105Z,23.31
2022-08-11T04:44:02.841Z,23.47
2022-08-11T04:47:05.996Z,23.43
2022-08-11T04:50:22.641Z,23.05
2022-08-11T04:53:27.159Z,23.17
2022-08-11T04:56:29.130Z,23.09
2022-08-11T04:59:59.139Z,23.12
2022-08-11T05:03:00.581Z,22.72
2022-08-11T05:05:54.718Z,22.86
2022-08-11T05:09:00.709Z,23.25
2022-08-11T05:12:03.764Z,23.36
2022-08-11T05:14:52.639Z,23.48
2022-08-11T05:17:46.711Z,23.42
2022-08-11T05:20:32.737Z,23.72
2022-08-11T05:23:23.892Z,23.69
2022-08-11T05:26:46.698Z,23.64
2022-08-11T05:29:24.466Z,23.55
2022-08-11T05:32:20.539Z,23.32
2022-08-11T05:34:55.075Z,23.57
2022-08-11T05:37:33.365Z,23.41
2022-08-11T05:40:25.187Z,23.57
2022-08-11T05:43:16.228Z,23.44
2022-08-11T05:46:06.237Z,23.72
2022-08-11T05:48:55.141Z,23.98
2022-08-11T05:51:55.241Z,22.39
2022-08-11T05:54:46.062Z,23.59
2022-08-11T05:57:48.997Z,24.05
2022-08-11T06:00:16.043Z,24.08
2022-08-11T06:02:46.141Z,24.84
2022-08-11T06:05:15.341Z,25.01
2022-08-11T06:07:48.398Z,24.41
2022-08-11T06:10:28.640Z,24.69
2022-08-11T06:13:01.233Z,24.49
2022-08-11T06:15:33.104Z,24.81
2022-08-11T06:18:03.063Z,25.25
2022-08-11T06:20:37.664Z,25.40
2022-08-11T06:23:10.055Z,25.90
2022-08-11T06:25:39.570Z,25.69
2022-08-11T06:28:09.661Z,25.70
2022-08-11T06:30:42.766Z,25.98
2022-08-11T06:33:14.760Z,25.81
2022-08-11T06:35:58.925Z,25.65
2022-08-11T06:38:45.649Z,25.90
2022-08-11T06:41:32.364Z,26.49
2022-08-11T06:44:18.242Z,27.54
2022-08-11T06:46:51.220Z,28.02
2022-08-11T06:49:39.513Z,28.30
2022-08-11T06:52:34.316Z,27.84
2022-08-11T06:55:06.650Z,28.22
2022-08-11T06:57:54.125Z,28.69
2022-08-11T07:00:33.130Z,28.02
2022-08-11T07:03:09.574Z,27.58
2022-08-11T07:05:46.239Z,27.48
2022-08-11T07:09:01.825Z,28.45
2022-08-11T07:12:21.332Z,28.83
2022-08-11T07:15:10.794Z,29.02
2022-08-11T07:17:49.996Z,28.73
2022-08-11T07:20:37.603Z,28.61
2022-08-11T07:23:28.713Z,29.70
2022-08-11T07:26:19.378Z,29.50
2022-08-11T07:28:59.099Z,30.10
2022-08-11T07:31:37.567Z,29.24
2022-08-11T07:34:19.296Z,29.43
2022-08-11T07:36:54.968Z,30.52
2022-08-11T07:39:25.928Z,30.72
2022-08-11T07:41:58.377Z,29.26
2022-08-11T07:44:34.855Z,29.89
2022-08-11T07:47:21.995Z,30.98
2022-08-11T07:50:09.045Z,30.99
2022-08-11T07:52:40.741Z,31.18
2022-08-11T07:55:15.670Z,31.85
2022-08-11T07:58:15.517Z,31.32
2022-08-11T08:01:10.549Z,30.97
2022-08-11T08:04:02.870Z,31.64
2022-08-11T08:06:51.536Z,31.75
2022-08-11T08:09:40.702Z,32.08
2022-08-11T08:12:27.665Z,32.45
2022-08-11T08:15:14.815Z,33.18
2022-08-11T08:18:20.826Z,32.41
2022-08-11T08:20:47.646Z,32.08
2022-08-11T08:23:17.709Z,32.63
2022-08-11T08:25:48.346Z,33.14
2022-08-11T08:28:19.053Z,32.73
2022-08-11T08:30:51.284Z,33.24
2022-08-11T08:33:22.937Z,32.49
2022-08-11T08:36:11.781Z,32.84
2022-08-11T08:38:42.668Z,32.55
2022-08-11T08:41:16.449Z,34.01
2022-08-11T08:43:50.320Z,33.39
2022-08-11T08:46:23.533Z,34.52
2022-08-11T08:48:53.174Z,34.24
2022-08-11T08:52:01.953Z,33.17
2022-08-11T08:54:35.696Z,33.56
2022-08-11T08:57:07.163Z,34.55
2022-08-11T08:59:48.932Z,33.77
2022-08-11T09:02:20.083Z,33.19
2022-08-11T09:05:04.235Z,34.52
2022-08-11T09:07:39.131Z,35.08
2022-08-11T09:10:11.487Z,35.71
2022-08-11T09:12:43.626Z,33.85
2022-08-11T09:15:15.171Z,35.03
2022-08-11T09:17:50.526Z,35.58
2022-08-11T09:20:22.979Z,35.99
2022-08-11T09:24:07.469Z,35.53
2022-08-11T09:26:18.244Z,35.22
2022-08-11T09:28:50.243Z,34.85
2022-08-11T09:31:19.380Z,35.17
2022-08-11T09:33:55.553Z,35.33
2022-08-11T09:36:41.177Z,33.82
2022-08-11T09:39:30.989Z,33.28
2022-08-11T09:42:04.230Z,32.42
2022-08-11T09:44:50.166Z,32.96
2022-08-11T09:47:24.621Z,33.54
2022-08-11T09:49:58.300Z,33.31
2022-08-11T09:52:27.912Z,34.14
2022-08-11T09:54:56.805Z,34.71
2022-08-11T09:57:43.943Z,36.05
2022-08-11T10:00:15.596Z,35.18
2022-08-11T10:02:46.723Z,34.95
2022-08-11T10:05:37.475Z,34.00
2022-08-11T10:08:06.989Z,34.47
2022-08-11T10:10:38.811Z,35.33
2022-08-11T10:14:04.953Z,35.15
2022-08-11T10:16:15.803Z,33.90
2022-08-11T10:18:52.953Z,32.94
2022-08-11T10:21:29.324Z,33.34
2022-08-11T10:24:18.043Z,32.75
2022-08-11T10:26:58.986Z,32.96
2022-08-11T10:29:49.993Z,33.57
2022-08-11T10:32:49.337Z,34.36
2022-08-11T10:35:28.203Z,34.26
2022-08-11T10:38:07.650Z,34.98
2022-08-11T10:40:40.263Z,35.36
2022-08-11T10:43:14.465Z,35.51
2022-08-11T10:46:29.739Z,34.24
2022-08-11T10:49:02.197Z,35.39
2022-08-11T10:51:52.124Z,35.85
2022-08-11T10:54:41.005Z,36.30
2022-08-11T10:57:28.035Z,37.15
2022-08-11T10:59:57.453Z,37.39
2022-08-11T11:02:27.398Z,36.68
2022-08-11T11:05:14.461Z,36.56
2022-08-11T11:07:54.129Z,36.01
2022-08-11T11:10:22.897Z,35.20
2022-08-11T11:13:13.368Z,35.05
2022-08-11T11:16:02.882Z,34.93
2022-08-11T11:18:36.151Z,34.29
2022-08-11T11:21:08.892Z,34.02
2022-08-11T11:23:47.496Z,33.94
2022-08-11T11:26:39.762Z,33.06
2022-08-11T11:29:47.662Z,33.69
2022-08-11T11:32:25.930Z,33.98
2022-08-11T11:35:15.189Z,33.62
2022-08-11T11:38:00.047Z,33.45
2022-08-11T11:40:33.527Z,32.37
2022-08-11T11:43:02.958Z,32.25
2022-08-11T11:45:31.619Z,31.51
2022-08-11T11:48:02.355Z,31.06
2022-08-11T11:50:33.223Z,31.08
2022-08-11T11:53:07.100Z,30.95
2022-08-11T11:55:36.592Z,29.60
2022-08-11T11:58:24.069Z,29.50
2022-08-11T12:01:12.458Z,28.33
2022-08-11T12:03:41.795Z,27.59
2022-08-11T12:06:14.435Z,27.41
2022-08-11T12:08:45.432Z,27.46
2022-08-11T12:11:32.145Z,26.19
2022-08-11T12:14:03.571Z,25.97
2022-08-11T12:16:40.973Z,26.05
2022-08-11T12:19:12.852Z,27.05
2022-08-11T12:22:03.189Z,27.04
2022-08-11T12:24:52.721Z,26.83
2022-08-11T12:27:25.725Z,26.52
2022-08-11T12:29:57.689Z,26.51
2022-08-11T12:32:29.278Z,26.73
2022-08-11T12:34:58.600Z,26.59
2022-08-11T12:37:32.233Z,27.20
2022-08-11T12:40:43.152Z,27.45
2022-08-11T12:43:37.145Z,27.81
2022-08-11T12:46:10.249Z,28.06
2022-08-11T12:49:03.037Z,27.16
2022-08-11T12:52:11.887Z,27.70
2022-08-11T12:54:51.759Z,28.27
2022-08-11T12:57:52.280Z,27.98
2022-08-11T13:00:38.890Z,28.26
2022-08-11T13:03:27.534Z,28.12
2022-08-11T13:05:58.314Z,28.26
2022-08-11T13:08:29.701Z,28.05
2022-08-11T13:11:19.276Z,27.98
2022-08-11T13:13:57.075Z,27.87
2022-08-11T13:16:30.291Z,26.74
2022-08-11T13:19:01.508Z,27.26
2022-08-11T13:21:31.147Z,27.46
2022-08-11T13:24:03.174Z,27.29
2022-08-11T13:26:47.518Z,27.12
2022-08-11T13:29:26.643Z,27.34
2022-08-11T13:31:58.367Z,27.53
2022-08-11T13:34:28.962Z,26.83
2022-08-11T13:37:00.246Z,27.17
2022-08-11T13:39:31.475Z,26.88
2022-08-11T13:42:01.642Z,27.20
2022-08-11T13:44:36.114Z,27.27
2022-08-11T13:47:07.531Z,27.59
2022-08-11T13:49:39.803Z,27.04
2022-08-11T13:52:14.182Z,26.97
2022-08-11T13:54:43.778Z,27.46
2022-08-11T13:58:08.650Z,27.13
2022-08-11T14:00:12.951Z,27.00
2022-08-11T14:03:03.675Z,26.44
2022-08-11T14:05:40.355Z,26.53
2022-08-11T14:08:37.412Z,26.45
2022-08-11T14:12:21.751Z,26.57
2022-08-11T14:14:20.597Z,26.34
2022-08-11T14:16:52.489Z,26.33
2022-08-11T14:19:24.481Z,26.35
2022-08-11T14:22:09.334Z,26.24
2022-08-11T14:24:40.591Z,26.28
2022-08-11T14:28:31.038Z,26.21
2022-08-11T14:30:00.372Z,26.55
2022-08-11T14:32:30.415Z,26.86
2022-08-11T14:35:03.337Z,26.96
2022-08-11T14:37:32.264Z,26.74
2022-08-11T14:40:22.850Z,26.37
2022-08-11T14:43:10.764Z,26.15
2022-08-11T14:46:03.614Z,26.52
2022-08-11T14:48:34.287Z,27.18
2022-08-11T14:51:02.879Z,27.07
2022-08-11T14:53:31.789Z,26.52
2022-08-11T14:56:19.065Z,26.15
2022-08-11T14:58:47.926Z,25.61
2022-08-11T15:01:30.606Z,25.74
2022-08-11T15:04:24.998Z,26.13
2022-08-11T15:06:49.884Z,26.21
2022-08-11T15:09:19.302Z,25.69
2022-08-11T15:12:33.305Z,25.54
2022-08-11T15:15:19.602Z,24.84
2022-08-11T15:17:49.326Z,24.57
2022-08-11T15:20:38.860Z,24.54
2022-08-11T15:23:24.889Z,25.06
2022-08-11T15:25:59.012Z,24.17
2022-08-11T15:28:46.887Z,25.33
2022-08-11T15:31:34.409Z,25.59
2022-08-11T15:34:22.354Z,25.11
2022-08-11T15:37:16.889Z,25.07
2022-08-11T15:40:08.305Z,25.83
2022-08-11T15:43:21.386Z,25.51
2022-08-11T15:45:54.907Z,25.45
2022-08-11T15:48:31.412Z,25.17
2022-08-11T15:51:09.410Z,25.50
2022-08-11T15:53:45.508Z,25.89
2022-08-11T15:56:27.565Z,26.13
2022-08-11T15:59:42.889Z,26.06
2022-08-11T16:02:37.230Z,25.77
2022-08-11T16:05:12.093Z,25.82
2022-08-11T16:07:49.305Z,24.99
2022-08-11T16:10:23.079Z,25.15
2022-08-11T16:13:24.381Z,25.46
2022-08-11T16:16:13.894Z,25.56
2022-08-11T16:18:47.241Z,25.64
2022-08-11T16:21:33.525Z,25.54
2022-08-11T16:24:06.597Z,25.65
2022-08-11T16:27:10.281Z,25.46
2022-08-11T16:29:33.015Z,24.95
2022-08-11T16:32:18.837Z,25.55
2022-08-11T16:35:07.509Z,25.36
2022-08-11T16:37:54.999Z,25.15
2022-08-11T16:40:24.584Z,25.32
2022-08-11T16:43:13.369Z,25.30
2022-08-11T16:46:00.902Z,25.50
2022-08-11T16:48:37.325Z,25.45
2022-08-11T16:51:07.619Z,25.96
2022-08-11T16:54:03.376Z,26.00
2022-08-11T16:56:32.009Z,25.77
2022-08-11T16:59:16.353Z,26.06
2022-08-11T17:01:50.378Z,26.04
2022-08-11T17:04:47.421Z,24.99
2022-08-11T17:07:41.909Z,25.40
2022-08-11T17:10:52.698Z,25.27
2022-08-11T17:13:29.491Z,25.41
2022-08-11T17:16:11.987Z,25.15
2022-08-11T17:18:56.056Z,25.43
2022-08-11T17:21:27.583Z,25.18
2022-08-11T17:24:02.784Z,25.11
2022-08-11T17:26:57.191Z,25.07
2022-08-11T17:29:30.283Z,25.14
2022-08-11T17:32:19.953Z,25.24
2022-08-11T17:35:06.933Z,25.27
2022-08-11T17:37:37.783Z,24.25
2022-08-11T17:40:12.463Z,24.11
2022-08-11T17:43:00.873Z,24.50
2022-08-11T17:45:46.857Z,24.71
2022-08-11T17:48:26.739Z,23.65
2022-08-11T17:50:57.572Z,23.28
2022-08-11T17:54:15.245Z,22.98
2022-08-11T17:56:51.225Z,22.88
2022-08-11T17:59:39.243Z,22.66
2022-08-11T18:02:34.909Z,22.49
2022-08-11T18:05:12.295Z,22.24
2022-08-11T18:08:00.390Z,22.15
2022-08-11T18:10:48.460Z,22.16
2022-08-11T18:13:35.975Z,22.10
2022-08-11T18:16:22.064Z,21.02
2022-08-11T18:19:07.646Z,21.94
2022-08-11T18:22:00.678Z,21.80
2022-08-11T18:25:06.897Z,21.63
2022-08-11T18:27:55.077Z,21.49
2022-08-11T18:30:43.060Z,21.60
2022-08-11T18:36:41.460Z,22.43
2022-08-11T18:39:30.793Z,22.32
2022-08-11T18:42:29.298Z,22.97
2022-08-11T18:45:19.608Z,23.05
2022-08-11T18:48:12.845Z,23.30
2022-08-11T18:51:30.935Z,23.22
2022-08-11T18:54:12.053Z,21.98
2022-08-11T18:57:04.221Z,22.06
2022-08-11T18:59:54.773Z,21.80
2022-08-11T19:02:48.994Z,21.25
2022-08-11T19:06:31.895Z,21.23
2022-08-11T19:08:48.138Z,20.97
2022-08-11T19:11:34.576Z,21.09
2022-08-11T19:14:31.876Z,21.24
2022-08-11T19:17:44.554Z,21.38
2022-08-11T19:20:30.170Z,21.49
2022-08-11T19:23:17.105Z,21.59
2022-08-11T19:26:03.750Z,21.95
2022-08-11T19:28:52.468Z,22.19
2022-08-11T19:31:44.366Z,22.83
2022-08-11T19:34:32.375Z,23.15
2022-08-11T19:37:23.554Z,22.33
2022-08-11T19:40:11.569Z,23.32
2022-08-11T19:42:59.200Z,23.52
2022-08-11T19:45:45.878Z,23.54
2022-08-11T19:48:40.857Z,23.62
2022-08-11T19:51:28.820Z,22.96
2022-08-11T19:54:16.237Z,23.38
2022-08-11T19:57:03.419Z,23.52
2022-08-11T19:59:51.189Z,23.60
2022-08-11T20:02:38.413Z,23.62
2022-08-11T20:05:26.430Z,23.32
2022-08-11T20:08:15.213Z,23.25
2022-08-11T20:11:02.858Z,23.56
2022-08-11T20:13:49.939Z,23.66
2022-08-11T20:16:38.738Z,23.63
2022-08-11T20:19:55.319Z,23.58
2022-08-11T20:22:34.746Z,23.61
2022-08-11T20:25:23.336Z,23.40
2022-08-11T20:28:10.737Z,23.53
2022-08-11T20:30:57.613Z,23.56
2022-08-11T20:33:44.294Z,23.15
2022-08-11T20:36:31.778Z,23.06
2022-08-11T20:39:20.034Z,23.26
2022-08-11T20:42:07.197Z,22.84
2022-08-11T20:44:55.848Z,22.64
2022-08-11T20:47:59.862Z,23.07
2022-08-11T20:50:50.514Z,23.49
2022-08-11T20:53:40.637Z,23.65
2022-08-11T20:56:30.102Z,23.62
2022-08-11T20:59:21.447Z,23.75
2022-08-11T21:02:09.625Z,23.80
2022-08-11T21:04:57.650Z,23.55
2022-08-11T21:07:55.569Z,23.24
2022-08-11T21:10:46.743Z,22.65
2022-08-11T21:13:37.087Z,22.65
2022-08-11T21:16:27.483Z,22.51
2022-08-11T21:19:55.144Z,21.76
2022-08-11T21:22:27.950Z,21.70
2022-08-11T21:25:16.552Z,21.71
2022-08-11T21:28:03.507Z,21.84
2022-08-11T21:30:54.006Z,21.69
2022-08-11T21:33:46.158Z,22.01
2022-08-11T21:36:33.496Z,22.15
2022-08-11T21:39:22.860Z,22.12
2022-08-11T21:42:12.910Z,22.03
2022-08-11T21:45:00.949Z,22.48
2022-08-11T21:47:50.045Z,22.65
2022-08-11T21:50:46.793Z,22.41
2022-08-11T21:53:33.221Z,22.48
2022-08-11T21:56:19.710Z,22.13
2022-08-11T21:59:08.158Z,21.79
2022-08-11T22:01:54.594Z,21.80
2022-08-11T22:04:43.776Z,22.22
2022-08-11T22:07:30.200Z,22.10
2022-08-11T22:10:40.907Z,22.39
2022-08-11T22:13:24.433Z,22.68
2022-08-11T22:16:10.786Z,22.81
2022-08-11T22:18:56.545Z,22.83
2022-08-11T22:22:03.294Z,22.86
2022-08-11T22:24:51.418Z,22.78
2022-08-11T22:27:37.441Z,22.85
2022-08-11T22:30:24.920Z,22.77
2022-08-11T22:33:11.511Z,22.45
2022-08-11T22:35:58.036Z,22.54
2022-08-11T22:38:45.878Z,22.60
2022-08-11T22:41:32.368Z,22.60
2022-08-11T22:44:17.659Z,22.36
2022-08-11T22:47:03.700Z,22.42
2022-08-11T22:49:57.516Z,22.74
2022-08-11T22:52:44.743Z,22.75
2022-08-11T22:55:32.853Z,22.76
2022-08-11T22:58:20.324Z,22.74
2022-08-11T23:01:05.738Z,22.76
2022-08-11T23:03:52.143Z,22.28
2022-08-11T23:06:38.413Z,22.09
2022-08-11T23:09:25.383Z,22.20
2022-08-11T23:12:13.382Z,22.07
2022-08-11T23:15:00.336Z,21.42
2022-08-11T23:17:46.980Z,21.37
2022-08-11T23:20:36.527Z,21.81
2022-08-11T23:23:31.066Z,22.00
2022-08-11T23:26:18.562Z,22.06
2022-08-11T23:29:06.134Z,22.18
2022-08-11T23:31:55.102Z,22.19
2022-08-11T23:35:04.364Z,22.22
2022-08-11T23:37:54.861Z,22.08
2022-08-11T23:40:41.038Z,21.64
2022-08-11T23:43:26.912Z,21.66
2022-08-11T23:46:14.067Z,21.72
2022-08-11T23:49:00.674Z,21.89
2022-08-11T23:51:47.633Z,21.69
2022-08-11T23:54:37.288Z,21.91
2022-08-11T23:57:24.168Z,21.74
